createdAt,value
2018-09-02T11:58:53.000Z,0.066
2018-09-02T11:59:35.000Z,0.106
2018-09-02T12:00:15.000Z,0.103
2018-09-02T12:01:14.000Z,0.018
2018-09-02T12:02:14.000Z,0.073
2018-09-02T12:03:14.000Z,0.065
2018-09-02T12:04:15.000Z,0.107
2018-09-02T12:05:14.000Z,0.137
2018-09-02T12:06:14.000Z,0.187
2018-09-02T12:07:14.000Z,0.053
2018-09-02T12:08:14.000Z,0.123
2018-09-02T12:09:16.000Z,0.140
2018-09-02T12:10:15.000Z,0.071
2018-09-02T12:11:14.000Z,0.067
2018-09-02T12:12:14.000Z,0.095
2018-09-02T12:13:14.000Z,0.066
2018-09-02T12:14:15.000Z,0.101
2018-09-02T12:15:14.000Z,0.083
2018-09-02T12:16:14.000Z,0.082
2018-09-02T12:17:15.000Z,0.077
2018-09-02T12:18:14.000Z,0.143
2018-09-02T12:19:14.000Z,0.037
2018-09-02T12:20:15.000Z,0.014
2018-09-02T12:21:14.000Z,0.055
2018-09-02T12:22:14.000Z,0.091
2018-09-02T12:23:15.000Z,0.156
2018-09-02T12:24:14.000Z,0.113
2018-09-02T12:25:14.000Z,0.037
2018-09-02T12:26:14.000Z,0.070
2018-09-02T12:27:14.000Z,0.021
2018-09-02T12:28:14.000Z,0.086
2018-09-02T12:29:15.000Z,0.121
2018-09-02T12:30:14.000Z,0.035
2018-09-02T12:31:14.000Z,0.019
2018-09-02T12:32:14.000Z,0.080
2018-09-02T12:33:14.000Z,0.063
2018-09-02T12:34:14.000Z,0.078
2018-09-02T12:35:14.000Z,0.033
2018-09-02T12:36:14.000Z,0.037
2018-09-02T12:37:14.000Z,0.048
2018-09-02T12:38:14.000Z,0.085
2018-09-02T12:39:15.000Z,0.052
2018-09-02T12:40:14.000Z,0.092
2018-09-02T12:41:15.000Z,0.029
2018-09-02T12:42:14.000Z,0.050
2018-09-02T12:43:15.000Z,0.047
2018-09-02T12:44:14.000Z,0.080
2018-09-02T12:45:15.000Z,0.040
2018-09-02T12:46:14.000Z,0.029
2018-09-02T12:47:14.000Z,0.079
2018-09-02T12:48:15.000Z,0.078
2018-09-02T12:49:14.000Z,0.045
2018-09-02T12:50:14.000Z,0.074
2018-09-02T12:51:14.000Z,0.155
2018-09-02T12:52:14.000Z,0.091
2018-09-02T12:53:14.000Z,0.090
2018-09-02T12:54:14.000Z,0.336
2018-09-02T12:55:15.000Z,0.064
2018-09-02T12:56:14.000Z,0.805
2018-09-02T12:57:14.000Z,1.339
2018-09-02T12:58:14.000Z,0.206
2018-09-02T12:59:15.000Z,0.600
2018-09-02T13:00:14.000Z,0.142
2018-09-02T13:01:14.000Z,0.086
2018-09-02T13:02:14.000Z,0.031
2018-09-02T13:03:14.000Z,0.074
2018-09-02T13:04:14.000Z,0.069
2018-09-02T13:05:15.000Z,0.271
2018-09-02T13:06:14.000Z,0.116
2018-09-02T13:07:15.000Z,0.225
2018-09-02T13:08:14.000Z,0.026
2018-09-02T13:09:15.000Z,0.202
2018-09-02T13:10:14.000Z,0.956
2018-09-02T13:11:14.000Z,0.901
2018-09-02T13:12:15.000Z,0.265
2018-09-02T13:13:15.000Z,2.785
2018-09-02T13:14:14.000Z,2.882
2018-09-02T13:15:14.000Z,4.357
2018-09-02T13:16:14.000Z,3.168
2018-09-02T13:17:14.000Z,6.993
2018-09-02T13:18:13.000Z,3.858
2018-09-02T13:19:15.000Z,2.056
2018-09-02T13:20:14.000Z,2.060
2018-09-02T13:21:14.000Z,5.056
2018-09-02T13:22:14.000Z,4.952
2018-09-02T13:23:14.000Z,4.225
2018-09-02T13:24:14.000Z,3.399
2018-09-02T13:25:14.000Z,2.552
2018-09-02T13:26:14.000Z,1.766
2018-09-02T13:27:14.000Z,1.868
2018-09-02T13:28:15.000Z,1.451
2018-09-02T13:29:14.000Z,1.267
2018-09-02T13:30:15.000Z,3.176
2018-09-02T13:31:14.000Z,3.453
2018-09-02T13:32:14.000Z,1.971
2018-09-02T13:33:14.000Z,1.938
2018-09-02T13:35:14.000Z,3.184
2018-09-02T13:36:14.000Z,3.473
2018-09-02T13:37:15.000Z,3.904
2018-09-02T13:38:14.000Z,4.211
2018-09-02T13:39:16.000Z,3.823
2018-09-02T13:40:15.000Z,4.703
2018-09-02T13:41:14.000Z,3.133
2018-09-02T13:42:14.000Z,3.352
2018-09-02T13:43:15.000Z,5.872
2018-09-02T13:44:14.000Z,2.324
2018-09-02T13:45:15.000Z,1.621
2018-09-02T13:46:14.000Z,1.026
2018-09-02T13:47:15.000Z,0.850
2018-09-02T13:48:14.000Z,4.251
2018-09-02T13:49:14.000Z,3.447
2018-09-02T13:50:14.000Z,3.185
2018-09-02T13:51:15.000Z,1.799
2018-09-02T13:52:14.000Z,5.495
2018-09-02T13:53:14.000Z,3.067
2018-09-02T13:54:14.000Z,3.539
2018-09-02T13:55:14.000Z,5.098
2018-09-02T13:56:14.000Z,2.748
2018-09-02T13:57:15.000Z,2.147
2018-09-02T13:58:14.000Z,1.819
2018-09-02T13:59:14.000Z,1.570
2018-09-02T14:00:15.000Z,1.177
2018-09-02T14:01:15.000Z,4.160
2018-09-02T14:02:14.000Z,2.502
2018-09-02T14:03:14.000Z,2.046
2018-09-02T14:04:14.000Z,5.665
2018-09-02T14:05:14.000Z,3.241
2018-09-02T14:06:14.000Z,1.504
2018-09-02T14:07:14.000Z,1.554
2018-09-02T14:08:14.000Z,1.839
2018-09-02T14:09:16.000Z,3.874
2018-09-02T14:10:14.000Z,4.436
2018-09-02T14:11:15.000Z,2.431
2018-09-02T14:12:14.000Z,1.897
2018-09-02T14:13:15.000Z,1.175
2018-09-02T14:14:14.000Z,1.612
2018-09-02T14:15:15.000Z,0.489
2018-09-02T14:16:14.000Z,1.368
2018-09-02T14:17:14.000Z,2.180
2018-09-02T14:18:14.000Z,2.794
2018-09-02T14:19:14.000Z,2.564
2018-09-02T14:20:14.000Z,4.218
2018-09-02T14:21:14.000Z,6.374
2018-09-02T14:22:14.000Z,4.073
2018-09-02T14:23:15.000Z,0.097
2018-09-02T14:24:14.000Z,0.184
2018-09-02T14:25:15.000Z,0.026
2018-09-02T14:26:15.000Z,0.144
2018-09-02T14:27:14.000Z,0.072
2018-09-02T14:28:14.000Z,0.096
2018-09-02T14:29:14.000Z,0.132
2018-09-02T14:30:15.000Z,0.059
2018-09-02T14:31:14.000Z,0.209
2018-09-02T14:32:14.000Z,0.044
2018-09-02T14:33:14.000Z,0.158
2018-09-02T14:34:14.000Z,0.046
